Etusivu
METAR-TAF:

METAR-TAF

Lentoasemat :

Fort Rucker, Alabama, Yhdysvallat

Leveyspiiri: 31-21-32N, Pituuspiiri: 085-44-54W, korkeus merenpinnasta: 78 m

Tämänhetkinen sää

Tämä raportti tehtiin 38 minuuttia sitten, kello 01.58 UTC
Tuuli 10 kn etelästä/lounaasta
Lämpötila 27°C
Kosteus 79%
Ilmanpaine 1016 hPa
Näkyvyys: 16.1 km
selkeää

METAR: KLOR 060158Z AUTO 21010KT 10SM CLR 27/23 A2999 RMK AO2 LTG DSNT N RAB20E35 SLP136 P0000 T02660228

Aika: 21:36 (02:36 UTC)


TAF: puuttuu

Säähavainnot ja -ennusteet yli 4000 lentoasemalta (METAR- ja TAF-raportit).

Käytössä olevat sääasemat on merkitty karttaan keltaisilla ja punaisilla pisteillä.

Aseta hiiri pisteen päälle nähdäksesi sääaseman nimen.

Klikkaa sitten nähdäksesi säähavainnot ja -ennusteet.

Kartan vaihtaminen: klikkaa mustalla rastilla varustettuja vihreitä pisteitä, niin voit zoomata sisään; viivalla varustettua vihreää pistettä, niin voit zoomata ulos tai vihreitä nuolia, niin pääset viereisille kartoille.


METAR-TAF: